sensor_id;sensor_type;location;lat;lon;timestamp;P1;durP1;ratioP1;P2;durP2;ratioP2
54613;SDS011;40514;52.758;6.360;2023-04-10T00:00:14;55.90;;;37.87;;
54613;SDS011;40514;52.758;6.360;2023-04-10T00:02:40;53.53;;;37.20;;
54613;SDS011;40514;52.758;6.360;2023-04-10T00:05:06;53.05;;;37.25;;
54613;SDS011;40514;52.758;6.360;2023-04-10T00:07:32;52.92;;;36.05;;
54613;SDS011;40514;52.758;6.360;2023-04-10T00:09:58;54.93;;;38.23;;
54613;SDS011;40514;52.758;6.360;2023-04-10T00:12:23;53.07;;;37.33;;
54613;SDS011;40514;52.758;6.360;2023-04-10T00:14:50;54.70;;;39.22;;
54613;SDS011;40514;52.758;6.360;2023-04-10T00:17:15;59.07;;;39.70;;
54613;SDS011;40514;52.758;6.360;2023-04-10T00:19:41;55.63;;;38.27;;
54613;SDS011;40514;52.758;6.360;2023-04-10T00:22:06;55.53;;;39.03;;
54613;SDS011;40514;52.758;6.360;2023-04-10T00:24:32;56.67;;;39.43;;
54613;SDS011;40514;52.758;6.360;2023-04-10T00:26:57;58.60;;;39.97;;
54613;SDS011;40514;52.758;6.360;2023-04-10T00:29:23;59.30;;;39.20;;
54613;SDS011;40514;52.758;6.360;2023-04-10T00:31:49;56.55;;;40.03;;
54613;SDS011;40514;52.758;6.360;2023-04-10T00:34:15;58.60;;;39.87;;
54613;SDS011;40514;52.758;6.360;2023-04-10T00:36:40;57.07;;;39.60;;
54613;SDS011;40514;52.758;6.360;2023-04-10T00:39:07;57.53;;;39.83;;
54613;SDS011;40514;52.758;6.360;2023-04-10T00:41:33;54.47;;;38.53;;
54613;SDS011;40514;52.758;6.360;2023-04-10T00:43:59;55.50;;;38.53;;
54613;SDS011;40514;52.758;6.360;2023-04-10T00:46:24;59.10;;;38.63;;
54613;SDS011;40514;52.758;6.360;2023-04-10T00:48:51;55.40;;;39.20;;
54613;SDS011;40514;52.758;6.360;2023-04-10T00:51:18;52.67;;;38.08;;
54613;SDS011;40514;52.758;6.360;2023-04-10T00:53:46;55.92;;;37.20;;
54613;SDS011;40514;52.758;6.360;2023-04-10T00:56:12;56.22;;;38.22;;
54613;SDS011;40514;52.758;6.360;2023-04-10T00:58:38;54.08;;;37.40;;
54613;SDS011;40514;52.758;6.360;2023-04-10T01:01:03;54.03;;;36.67;;
54613;SDS011;40514;52.758;6.360;2023-04-10T01:03:30;56.05;;;37.38;;
54613;SDS011;40514;52.758;6.360;2023-04-10T01:11:09;51.00;;;34.58;;
54613;SDS011;40514;52.758;6.360;2023-04-10T01:13:44;52.80;;;36.53;;
54613;SDS011;40514;52.758;6.360;2023-04-10T01:16:30;50.75;;;36.08;;
54613;SDS011;40514;52.758;6.360;2023-04-10T01:19:03;52.17;;;34.80;;
54613;SDS011;40514;52.758;6.360;2023-04-10T01:21:42;51.83;;;35.50;;
54613;SDS011;40514;52.758;6.360;2023-04-10T01:29:48;48.78;;;35.63;;
54613;SDS011;40514;52.758;6.360;2023-04-10T01:32:19;51.42;;;36.55;;
54613;SDS011;40514;52.758;6.360;2023-04-10T01:34:48;52.28;;;37.25;;
54613;SDS011;40514;52.758;6.360;2023-04-10T01:37:16;51.28;;;37.58;;
54613;SDS011;40514;52.758;6.360;2023-04-10T01:39:49;52.92;;;38.10;;
54613;SDS011;40514;52.758;6.360;2023-04-10T01:42:18;57.28;;;38.88;;
54613;SDS011;40514;52.758;6.360;2023-04-10T01:44:46;52.42;;;37.80;;
54613;SDS011;40514;52.758;6.360;2023-04-10T01:47:14;57.53;;;41.05;;
54613;SDS011;40514;52.758;6.360;2023-04-10T01:49:43;59.53;;;38.90;;
54613;SDS011;40514;52.758;6.360;2023-04-10T01:52:10;58.95;;;39.80;;
54613;SDS011;40514;52.758;6.360;2023-04-10T01:54:38;60.58;;;40.83;;
54613;SDS011;40514;52.758;6.360;2023-04-10T01:57:03;58.00;;;39.23;;
54613;SDS011;40514;52.758;6.360;2023-04-10T01:59:30;57.28;;;40.60;;
54613;SDS011;40514;52.758;6.360;2023-04-10T02:01:56;64.53;;;41.10;;
54613;SDS011;40514;52.758;6.360;2023-04-10T02:04:22;60.83;;;42.33;;
54613;SDS011;40514;52.758;6.360;2023-04-10T02:06:51;59.60;;;42.45;;
54613;SDS011;40514;52.758;6.360;2023-04-10T02:09:44;60.60;;;42.30;;
54613;SDS011;40514;52.758;6.360;2023-04-10T02:12:21;58.35;;;40.78;;
54613;SDS011;40514;52.758;6.360;2023-04-10T02:15:00;63.30;;;43.35;;
54613;SDS011;40514;52.758;6.360;2023-04-10T02:17:29;66.70;;;43.30;;
54613;SDS011;40514;52.758;6.360;2023-04-10T02:19:56;58.97;;;40.63;;
54613;SDS011;40514;52.758;6.360;2023-04-10T02:22:23;60.08;;;41.72;;
54613;SDS011;40514;52.758;6.360;2023-04-10T02:24:50;60.15;;;42.60;;
54613;SDS011;40514;52.758;6.360;2023-04-10T02:29:52;55.33;;;39.08;;
54613;SDS011;40514;52.758;6.360;2023-04-10T02:32:17;56.20;;;39.90;;
54613;SDS011;40514;52.758;6.360;2023-04-10T02:34:43;59.50;;;39.83;;
54613;SDS011;40514;52.758;6.360;2023-04-10T02:37:09;55.13;;;38.13;;
54613;SDS011;40514;52.758;6.360;2023-04-10T02:39:34;53.97;;;36.97;;
54613;SDS011;40514;52.758;6.360;2023-04-10T02:42:01;51.65;;;37.58;;
54613;SDS011;40514;52.758;6.360;2023-04-10T02:44:26;53.23;;;36.93;;
54613;SDS011;40514;52.758;6.360;2023-04-10T02:46:52;50.30;;;36.03;;
54613;SDS011;40514;52.758;6.360;2023-04-10T02:49:17;51.50;;;37.70;;
54613;SDS011;40514;52.758;6.360;2023-04-10T02:51:43;52.93;;;36.50;;
54613;SDS011;40514;52.758;6.360;2023-04-10T02:54:08;49.13;;;35.63;;
54613;SDS011;40514;52.758;6.360;2023-04-10T02:56:34;49.20;;;34.37;;
54613;SDS011;40514;52.758;6.360;2023-04-10T02:58:59;51.30;;;35.90;;
54613;SDS011;40514;52.758;6.360;2023-04-10T03:01:25;51.43;;;35.30;;
54613;SDS011;40514;52.758;6.360;2023-04-10T03:03:51;47.13;;;34.93;;
54613;SDS011;40514;52.758;6.360;2023-04-10T03:06:16;47.00;;;34.70;;
54613;SDS011;40514;52.758;6.360;2023-04-10T03:08:42;50.10;;;35.90;;
54613;SDS011;40514;52.758;6.360;2023-04-10T03:11:07;51.60;;;35.53;;
54613;SDS011;40514;52.758;6.360;2023-04-10T03:13:33;52.23;;;36.40;;
54613;SDS011;40514;52.758;6.360;2023-04-10T03:15:59;48.37;;;36.07;;
54613;SDS011;40514;52.758;6.360;2023-04-10T03:18:24;50.47;;;36.40;;
54613;SDS011;40514;52.758;6.360;2023-04-10T03:20:50;48.50;;;35.97;;
54613;SDS011;40514;52.758;6.360;2023-04-10T03:23:16;46.50;;;34.13;;
54613;SDS011;40514;52.758;6.360;2023-04-10T03:25:41;50.90;;;35.20;;
54613;SDS011;40514;52.758;6.360;2023-04-10T03:28:07;44.77;;;34.50;;
54613;SDS011;40514;52.758;6.360;2023-04-10T03:30:33;48.13;;;34.57;;
54613;SDS011;40514;52.758;6.360;2023-04-10T03:33:01;46.10;;;33.55;;
54613;SDS011;40514;52.758;6.360;2023-04-10T03:35:26;48.00;;;35.80;;
54613;SDS011;40514;52.758;6.360;2023-04-10T03:37:52;47.00;;;34.57;;
54613;SDS011;40514;52.758;6.360;2023-04-10T03:40:17;48.37;;;34.10;;
54613;SDS011;40514;52.758;6.360;2023-04-10T03:42:43;48.07;;;34.97;;
54613;SDS011;40514;52.758;6.360;2023-04-10T03:45:09;48.53;;;34.03;;
54613;SDS011;40514;52.758;6.360;2023-04-10T03:47:35;47.95;;;32.83;;
54613;SDS011;40514;52.758;6.360;2023-04-10T03:50:00;45.40;;;32.77;;
54613;SDS011;40514;52.758;6.360;2023-04-10T03:52:26;45.17;;;32.70;;
54613;SDS011;40514;52.758;6.360;2023-04-10T03:54:52;44.43;;;33.47;;
54613;SDS011;40514;52.758;6.360;2023-04-10T03:57:18;45.55;;;33.15;;
54613;SDS011;40514;52.758;6.360;2023-04-10T03:59:45;44.60;;;31.88;;
54613;SDS011;40514;52.758;6.360;2023-04-10T04:02:11;45.63;;;31.95;;
54613;SDS011;40514;52.758;6.360;2023-04-10T04:04:36;45.37;;;32.53;;
54613;SDS011;40514;52.758;6.360;2023-04-10T04:07:02;46.63;;;32.67;;
54613;SDS011;40514;52.758;6.360;2023-04-10T04:09:28;44.17;;;32.60;;
54613;SDS011;40514;52.758;6.360;2023-04-10T04:11:53;43.03;;;31.93;;
54613;SDS011;40514;52.758;6.360;2023-04-10T04:14:20;44.72;;;33.03;;
54613;SDS011;40514;52.758;6.360;2023-04-10T04:16:46;43.97;;;31.40;;
54613;SDS011;40514;52.758;6.360;2023-04-10T04:19:12;45.93;;;30.90;;
54613;SDS011;40514;52.758;6.360;2023-04-10T04:21:37;45.30;;;31.53;;
54613;SDS011;40514;52.758;6.360;2023-04-10T04:24:03;44.67;;;31.87;;
54613;SDS011;40514;52.758;6.360;2023-04-10T04:26:29;44.63;;;32.37;;
54613;SDS011;40514;52.758;6.360;2023-04-10T04:28:54;40.87;;;30.73;;
54613;SDS011;40514;52.758;6.360;2023-04-10T04:31:20;44.67;;;31.00;;
54613;SDS011;40514;52.758;6.360;2023-04-10T04:33:46;44.43;;;31.83;;
54613;SDS011;40514;52.758;6.360;2023-04-10T04:36:11;42.70;;;30.33;;
54613;SDS011;40514;52.758;6.360;2023-04-10T04:38:37;42.80;;;29.47;;
54613;SDS011;40514;52.758;6.360;2023-04-10T04:41:02;43.50;;;31.20;;
54613;SDS011;40514;52.758;6.360;2023-04-10T04:43:28;41.20;;;28.77;;
54613;SDS011;40514;52.758;6.360;2023-04-10T04:45:53;44.10;;;29.23;;
54613;SDS011;40514;52.758;6.360;2023-04-10T04:48:19;41.50;;;28.40;;
54613;SDS011;40514;52.758;6.360;2023-04-10T04:50:44;41.27;;;29.67;;
54613;SDS011;40514;52.758;6.360;2023-04-10T04:53:10;39.73;;;27.23;;
54613;SDS011;40514;52.758;6.360;2023-04-10T04:55:36;39.90;;;27.77;;
54613;SDS011;40514;52.758;6.360;2023-04-10T04:58:01;39.47;;;27.97;;
54613;SDS011;40514;52.758;6.360;2023-04-10T05:00:27;37.10;;;26.27;;
54613;SDS011;40514;52.758;6.360;2023-04-10T05:02:52;39.33;;;28.20;;
54613;SDS011;40514;52.758;6.360;2023-04-10T05:05:18;35.20;;;26.27;;
54613;SDS011;40514;52.758;6.360;2023-04-10T05:07:43;38.77;;;27.07;;
54613;SDS011;40514;52.758;6.360;2023-04-10T05:10:09;36.60;;;26.17;;
54613;SDS011;40514;52.758;6.360;2023-04-10T05:12:34;35.47;;;26.40;;
54613;SDS011;40514;52.758;6.360;2023-04-10T05:15:00;38.37;;;26.63;;
54613;SDS011;40514;52.758;6.360;2023-04-10T05:17:26;35.70;;;25.60;;
54613;SDS011;40514;52.758;6.360;2023-04-10T05:19:51;35.57;;;24.87;;
54613;SDS011;40514;52.758;6.360;2023-04-10T05:22:17;34.80;;;24.20;;
54613;SDS011;40514;52.758;6.360;2023-04-10T05:24:42;35.13;;;24.23;;
54613;SDS011;40514;52.758;6.360;2023-04-10T05:27:08;34.53;;;25.00;;
54613;SDS011;40514;52.758;6.360;2023-04-10T05:29:34;31.93;;;22.87;;
54613;SDS011;40514;52.758;6.360;2023-04-10T05:31:59;33.20;;;22.90;;
54613;SDS011;40514;52.758;6.360;2023-04-10T05:34:25;39.83;;;26.07;;
54613;SDS011;40514;52.758;6.360;2023-04-10T05:36:51;32.00;;;22.90;;
54613;SDS011;40514;52.758;6.360;2023-04-10T05:39:16;31.13;;;22.13;;
54613;SDS011;40514;52.758;6.360;2023-04-10T05:41:42;31.80;;;23.00;;
54613;SDS011;40514;52.758;6.360;2023-04-10T05:44:07;31.47;;;22.93;;
54613;SDS011;40514;52.758;6.360;2023-04-10T05:46:33;33.80;;;22.60;;
54613;SDS011;40514;52.758;6.360;2023-04-10T05:48:58;33.87;;;22.87;;
54613;SDS011;40514;52.758;6.360;2023-04-10T05:51:24;36.30;;;22.83;;
54613;SDS011;40514;52.758;6.360;2023-04-10T05:53:51;34.08;;;23.73;;
54613;SDS011;40514;52.758;6.360;2023-04-10T05:56:16;32.63;;;22.70;;
54613;SDS011;40514;52.758;6.360;2023-04-10T05:58:42;32.10;;;22.50;;
54613;SDS011;40514;52.758;6.360;2023-04-10T06:01:07;32.10;;;21.63;;
54613;SDS011;40514;52.758;6.360;2023-04-10T06:03:33;32.13;;;21.33;;
54613;SDS011;40514;52.758;6.360;2023-04-10T06:05:59;32.87;;;22.27;;
54613;SDS011;40514;52.758;6.360;2023-04-10T06:08:26;30.52;;;20.63;;
54613;SDS011;40514;52.758;6.360;2023-04-10T06:10:52;28.53;;;20.57;;
54613;SDS011;40514;52.758;6.360;2023-04-10T06:13:17;30.57;;;21.33;;
54613;SDS011;40514;52.758;6.360;2023-04-10T06:15:43;31.77;;;22.17;;
54613;SDS011;40514;52.758;6.360;2023-04-10T06:18:09;29.70;;;20.80;;
54613;SDS011;40514;52.758;6.360;2023-04-10T06:20:34;31.73;;;20.23;;
54613;SDS011;40514;52.758;6.360;2023-04-10T06:23:00;27.23;;;19.33;;
54613;SDS011;40514;52.758;6.360;2023-04-10T06:25:26;30.83;;;19.75;;
54613;SDS011;40514;52.758;6.360;2023-04-10T06:27:51;30.03;;;20.80;;
54613;SDS011;40514;52.758;6.360;2023-04-10T06:30:17;27.97;;;19.40;;
54613;SDS011;40514;52.758;6.360;2023-04-10T06:32:43;31.27;;;20.33;;
54613;SDS011;40514;52.758;6.360;2023-04-10T06:35:08;30.67;;;21.33;;
54613;SDS011;40514;52.758;6.360;2023-04-10T06:37:34;31.77;;;21.27;;
54613;SDS011;40514;52.758;6.360;2023-04-10T06:40:09;30.10;;;20.67;;
54613;SDS011;40514;52.758;6.360;2023-04-10T06:42:37;31.10;;;21.15;;
54613;SDS011;40514;52.758;6.360;2023-04-10T06:45:03;30.97;;;20.93;;
54613;SDS011;40514;52.758;6.360;2023-04-10T06:47:29;30.45;;;21.25;;
54613;SDS011;40514;52.758;6.360;2023-04-10T06:49:56;30.85;;;21.88;;
54613;SDS011;40514;52.758;6.360;2023-04-10T06:52:21;32.90;;;22.07;;
54613;SDS011;40514;52.758;6.360;2023-04-10T06:54:47;32.30;;;21.80;;
54613;SDS011;40514;52.758;6.360;2023-04-10T06:57:13;31.47;;;21.80;;
54613;SDS011;40514;52.758;6.360;2023-04-10T06:59:38;30.73;;;21.40;;
54613;SDS011;40514;52.758;6.360;2023-04-10T07:02:04;32.20;;;22.67;;
54613;SDS011;40514;52.758;6.360;2023-04-10T07:04:30;31.97;;;22.50;;
54613;SDS011;40514;52.758;6.360;2023-04-10T07:06:56;32.53;;;22.17;;
54613;SDS011;40514;52.758;6.360;2023-04-10T07:09:23;34.20;;;22.73;;
54613;SDS011;40514;52.758;6.360;2023-04-10T07:11:50;31.63;;;22.02;;
54613;SDS011;40514;52.758;6.360;2023-04-10T07:14:16;31.43;;;23.30;;
54613;SDS011;40514;52.758;6.360;2023-04-10T07:16:42;31.40;;;22.47;;
54613;SDS011;40514;52.758;6.360;2023-04-10T07:19:07;32.87;;;22.97;;
54613;SDS011;40514;52.758;6.360;2023-04-10T07:21:33;29.80;;;21.17;;
54613;SDS011;40514;52.758;6.360;2023-04-10T07:23:58;31.17;;;21.60;;
54613;SDS011;40514;52.758;6.360;2023-04-10T07:26:24;30.57;;;21.63;;
54613;SDS011;40514;52.758;6.360;2023-04-10T07:28:50;31.27;;;21.77;;
54613;SDS011;40514;52.758;6.360;2023-04-10T07:31:15;27.30;;;20.03;;
54613;SDS011;40514;52.758;6.360;2023-04-10T07:33:42;29.55;;;19.92;;
54613;SDS011;40514;52.758;6.360;2023-04-10T07:36:11;26.80;;;18.60;;
54613;SDS011;40514;52.758;6.360;2023-04-10T07:38:36;24.63;;;18.63;;
54613;SDS011;40514;52.758;6.360;2023-04-10T07:41:02;25.23;;;18.00;;
54613;SDS011;40514;52.758;6.360;2023-04-10T07:43:29;25.48;;;18.27;;
54613;SDS011;40514;52.758;6.360;2023-04-10T07:45:55;24.33;;;16.30;;
54613;SDS011;40514;52.758;6.360;2023-04-10T07:48:21;24.52;;;18.42;;
54613;SDS011;40514;52.758;6.360;2023-04-10T07:50:46;21.60;;;16.47;;
54613;SDS011;40514;52.758;6.360;2023-04-10T07:53:12;24.77;;;17.37;;
54613;SDS011;40514;52.758;6.360;2023-04-10T07:58:04;24.35;;;18.52;;
54613;SDS011;40514;52.758;6.360;2023-04-10T08:00:30;25.52;;;17.35;;
54613;SDS011;40514;52.758;6.360;2023-04-10T08:02:56;28.65;;;18.02;;
54613;SDS011;40514;52.758;6.360;2023-04-10T08:05:22;23.00;;;17.10;;
54613;SDS011;40514;52.758;6.360;2023-04-10T08:07:47;22.57;;;16.53;;
54613;SDS011;40514;52.758;6.360;2023-04-10T08:10:13;21.50;;;14.97;;
54613;SDS011;40514;52.758;6.360;2023-04-10T08:12:38;19.03;;;15.27;;
54613;SDS011;40514;52.758;6.360;2023-04-10T08:15:04;22.17;;;15.20;;
54613;SDS011;40514;52.758;6.360;2023-04-10T08:17:30;21.67;;;15.35;;
54613;SDS011;40514;52.758;6.360;2023-04-10T08:19:56;21.03;;;14.43;;
54613;SDS011;40514;52.758;6.360;2023-04-10T08:22:21;20.73;;;15.17;;
54613;SDS011;40514;52.758;6.360;2023-04-10T08:24:47;21.03;;;15.10;;
54613;SDS011;40514;52.758;6.360;2023-04-10T08:27:12;18.60;;;14.00;;
54613;SDS011;40514;52.758;6.360;2023-04-10T08:29:40;19.88;;;13.95;;
54613;SDS011;40514;52.758;6.360;2023-04-10T08:32:06;18.83;;;14.00;;
54613;SDS011;40514;52.758;6.360;2023-04-10T08:34:31;19.83;;;13.97;;
54613;SDS011;40514;52.758;6.360;2023-04-10T08:36:57;17.93;;;12.77;;
54613;SDS011;40514;52.758;6.360;2023-04-10T08:39:22;16.77;;;12.87;;
54613;SDS011;40514;52.758;6.360;2023-04-10T08:41:48;16.10;;;11.93;;
54613;SDS011;40514;52.758;6.360;2023-04-10T08:44:14;16.30;;;11.80;;
54613;SDS011;40514;52.758;6.360;2023-04-10T08:46:42;17.10;;;11.77;;
54613;SDS011;40514;52.758;6.360;2023-04-10T08:49:09;15.88;;;11.48;;
54613;SDS011;40514;52.758;6.360;2023-04-10T08:51:44;15.45;;;11.02;;
54613;SDS011;40514;52.758;6.360;2023-04-10T08:54:12;16.30;;;11.38;;
54613;SDS011;40514;52.758;6.360;2023-04-10T08:56:46;17.10;;;12.68;;
54613;SDS011;40514;52.758;6.360;2023-04-10T08:59:15;14.85;;;11.30;;
54613;SDS011;40514;52.758;6.360;2023-04-10T09:01:41;14.57;;;11.15;;
54613;SDS011;40514;52.758;6.360;2023-04-10T09:04:06;15.70;;;11.97;;
54613;SDS011;40514;52.758;6.360;2023-04-10T09:06:35;15.57;;;12.40;;
54613;SDS011;40514;52.758;6.360;2023-04-10T09:09:00;16.30;;;10.97;;
54613;SDS011;40514;52.758;6.360;2023-04-10T09:14:24;13.68;;;10.27;;
54613;SDS011;40514;52.758;6.360;2023-04-10T09:16:53;14.05;;;10.85;;
54613;SDS011;40514;52.758;6.360;2023-04-10T09:19:36;12.18;;;10.23;;
54613;SDS011;40514;52.758;6.360;2023-04-10T09:22:02;12.03;;;9.67;;
54613;SDS011;40514;52.758;6.360;2023-04-10T09:24:27;12.70;;;9.33;;
54613;SDS011;40514;52.758;6.360;2023-04-10T09:26:53;11.77;;;9.13;;
54613;SDS011;40514;52.758;6.360;2023-04-10T09:29:19;11.57;;;8.88;;
54613;SDS011;40514;52.758;6.360;2023-04-10T09:31:44;12.40;;;9.63;;
54613;SDS011;40514;52.758;6.360;2023-04-10T09:36:52;13.85;;;9.18;;
54613;SDS011;40514;52.758;6.360;2023-04-10T09:39:20;11.00;;;8.60;;
54613;SDS011;40514;52.758;6.360;2023-04-10T09:41:52;10.68;;;8.40;;
54613;SDS011;40514;52.758;6.360;2023-04-10T09:44:31;11.13;;;8.57;;
54613;SDS011;40514;52.758;6.360;2023-04-10T09:46:58;11.50;;;8.50;;
54613;SDS011;40514;52.758;6.360;2023-04-10T09:49:46;10.52;;;8.20;;
54613;SDS011;40514;52.758;6.360;2023-04-10T09:57:16;12.18;;;8.70;;
54613;SDS011;40514;52.758;6.360;2023-04-10T09:59:45;10.77;;;7.78;;
54613;SDS011;40514;52.758;6.360;2023-04-10T10:02:14;10.98;;;8.02;;
54613;SDS011;40514;52.758;6.360;2023-04-10T10:04:41;10.95;;;7.30;;
54613;SDS011;40514;52.758;6.360;2023-04-10T10:07:10;10.18;;;7.45;;
54613;SDS011;40514;52.758;6.360;2023-04-10T10:09:36;8.70;;;6.93;;
54613;SDS011;40514;52.758;6.360;2023-04-10T10:12:02;9.70;;;7.38;;
54613;SDS011;40514;52.758;6.360;2023-04-10T10:16:55;9.63;;;7.25;;
54613;SDS011;40514;52.758;6.360;2023-04-10T10:19:26;9.77;;;7.35;;
54613;SDS011;40514;52.758;6.360;2023-04-10T10:22:04;10.93;;;7.32;;
54613;SDS011;40514;52.758;6.360;2023-04-10T10:24:30;9.13;;;7.38;;
54613;SDS011;40514;52.758;6.360;2023-04-10T10:26:57;9.27;;;7.47;;
54613;SDS011;40514;52.758;6.360;2023-04-10T10:29:25;10.15;;;7.70;;
54613;SDS011;40514;52.758;6.360;2023-04-10T10:31:55;9.60;;;6.78;;
54613;SDS011;40514;52.758;6.360;2023-04-10T10:34:23;8.35;;;6.78;;
54613;SDS011;40514;52.758;6.360;2023-04-10T10:36:49;8.45;;;6.78;;
54613;SDS011;40514;52.758;6.360;2023-04-10T10:39:39;9.10;;;6.50;;
54613;SDS011;40514;52.758;6.360;2023-04-10T10:45:16;9.35;;;7.05;;
54613;SDS011;40514;52.758;6.360;2023-04-10T10:47:49;8.38;;;6.32;;
54613;SDS011;40514;52.758;6.360;2023-04-10T10:50:17;8.73;;;5.95;;
54613;SDS011;40514;52.758;6.360;2023-04-10T10:52:46;8.00;;;6.13;;
54613;SDS011;40514;52.758;6.360;2023-04-10T10:57:52;7.00;;;5.28;;
54613;SDS011;40514;52.758;6.360;2023-04-10T11:00:23;9.77;;;5.85;;
54613;SDS011;40514;52.758;6.360;2023-04-10T11:08:16;9.68;;;5.50;;
54613;SDS011;40514;52.758;6.360;2023-04-10T11:10:58;8.98;;;5.97;;
54613;SDS011;40514;52.758;6.360;2023-04-10T11:13:25;7.68;;;5.60;;
54613;SDS011;40514;52.758;6.360;2023-04-10T11:15:51;8.63;;;5.93;;
54613;SDS011;40514;52.758;6.360;2023-04-10T11:18:16;9.20;;;5.47;;
54613;SDS011;40514;52.758;6.360;2023-04-10T11:23:33;8.35;;;6.05;;
54613;SDS011;40514;52.758;6.360;2023-04-10T11:31:16;7.53;;;5.50;;
54613;SDS011;40514;52.758;6.360;2023-04-10T11:33:45;7.40;;;5.13;;
54613;SDS011;40514;52.758;6.360;2023-04-10T11:36:17;7.72;;;5.20;;
54613;SDS011;40514;52.758;6.360;2023-04-10T11:41:27;6.45;;;5.22;;
54613;SDS011;40514;52.758;6.360;2023-04-10T11:43:55;7.18;;;5.15;;
54613;SDS011;40514;52.758;6.360;2023-04-10T11:46:21;7.22;;;5.45;;
54613;SDS011;40514;52.758;6.360;2023-04-10T11:48:50;7.70;;;5.80;;
54613;SDS011;40514;52.758;6.360;2023-04-10T11:51:17;7.80;;;6.38;;
54613;SDS011;40514;52.758;6.360;2023-04-10T11:53:43;6.77;;;5.33;;
54613;SDS011;40514;52.758;6.360;2023-04-10T11:56:15;7.80;;;5.80;;
54613;SDS011;40514;52.758;6.360;2023-04-10T11:58:51;7.88;;;5.53;;
54613;SDS011;40514;52.758;6.360;2023-04-10T12:01:19;8.32;;;5.82;;
54613;SDS011;40514;52.758;6.360;2023-04-10T12:03:46;7.15;;;5.43;;
54613;SDS011;40514;52.758;6.360;2023-04-10T12:06:13;7.40;;;5.93;;
54613;SDS011;40514;52.758;6.360;2023-04-10T12:08:40;6.90;;;5.70;;
54613;SDS011;40514;52.758;6.360;2023-04-10T12:11:08;7.45;;;5.75;;
54613;SDS011;40514;52.758;6.360;2023-04-10T12:13:34;8.07;;;5.63;;
54613;SDS011;40514;52.758;6.360;2023-04-10T12:18:35;7.40;;;5.30;;
54613;SDS011;40514;52.758;6.360;2023-04-10T12:23:28;6.25;;;5.30;;
54613;SDS011;40514;52.758;6.360;2023-04-10T12:26:13;7.13;;;5.22;;
54613;SDS011;40514;52.758;6.360;2023-04-10T12:28:41;7.03;;;5.30;;
54613;SDS011;40514;52.758;6.360;2023-04-10T12:31:15;6.65;;;5.40;;
54613;SDS011;40514;52.758;6.360;2023-04-10T12:33:47;7.40;;;5.47;;
54613;SDS011;40514;52.758;6.360;2023-04-10T12:36:22;7.63;;;5.60;;
54613;SDS011;40514;52.758;6.360;2023-04-10T12:38:48;7.00;;;5.47;;
54613;SDS011;40514;52.758;6.360;2023-04-10T12:41:19;7.70;;;5.65;;
54613;SDS011;40514;52.758;6.360;2023-04-10T12:43:46;7.78;;;5.93;;
54613;SDS011;40514;52.758;6.360;2023-04-10T12:46:21;7.30;;;5.53;;
54613;SDS011;40514;52.758;6.360;2023-04-10T12:48:48;7.22;;;5.20;;
54613;SDS011;40514;52.758;6.360;2023-04-10T12:51:13;7.13;;;5.37;;
54613;SDS011;40514;52.758;6.360;2023-04-10T12:53:42;6.67;;;5.10;;
54613;SDS011;40514;52.758;6.360;2023-04-10T12:56:09;8.82;;;5.60;;
54613;SDS011;40514;52.758;6.360;2023-04-10T12:58:36;7.80;;;5.65;;
54613;SDS011;40514;52.758;6.360;2023-04-10T13:01:06;11.23;;;6.15;;
54613;SDS011;40514;52.758;6.360;2023-04-10T13:03:36;7.35;;;5.50;;
54613;SDS011;40514;52.758;6.360;2023-04-10T13:06:02;11.00;;;5.38;;
54613;SDS011;40514;52.758;6.360;2023-04-10T13:08:30;8.10;;;5.63;;
54613;SDS011;40514;52.758;6.360;2023-04-10T13:10:57;7.57;;;5.57;;
54613;SDS011;40514;52.758;6.360;2023-04-10T13:13:27;7.15;;;5.60;;
54613;SDS011;40514;52.758;6.360;2023-04-10T13:15:53;9.52;;;5.53;;
54613;SDS011;40514;52.758;6.360;2023-04-10T13:18:19;7.75;;;5.65;;
54613;SDS011;40514;52.758;6.360;2023-04-10T13:20:45;8.67;;;5.50;;
54613;SDS011;40514;52.758;6.360;2023-04-10T13:23:10;7.47;;;5.87;;
54613;SDS011;40514;52.758;6.360;2023-04-10T13:25:36;8.13;;;5.87;;
54613;SDS011;40514;52.758;6.360;2023-04-10T13:28:03;20.13;;;5.85;;
54613;SDS011;40514;52.758;6.360;2023-04-10T13:30:34;8.30;;;5.57;;
54613;SDS011;40514;52.758;6.360;2023-04-10T13:33:00;7.13;;;5.50;;
54613;SDS011;40514;52.758;6.360;2023-04-10T13:35:25;9.73;;;6.63;;
54613;SDS011;40514;52.758;6.360;2023-04-10T13:37:51;11.70;;;7.47;;
54613;SDS011;40514;52.758;6.360;2023-04-10T13:40:18;12.57;;;8.50;;
54613;SDS011;40514;52.758;6.360;2023-04-10T13:42:44;13.43;;;8.55;;
54613;SDS011;40514;52.758;6.360;2023-04-10T13:45:10;9.90;;;6.50;;
54613;SDS011;40514;52.758;6.360;2023-04-10T13:47:36;7.60;;;5.43;;
54613;SDS011;40514;52.758;6.360;2023-04-10T13:50:01;7.17;;;5.30;;
54613;SDS011;40514;52.758;6.360;2023-04-10T13:52:27;7.03;;;4.83;;
54613;SDS011;40514;52.758;6.360;2023-04-10T13:54:52;9.03;;;5.20;;
54613;SDS011;40514;52.758;6.360;2023-04-10T13:57:17;7.83;;;5.37;;
54613;SDS011;40514;52.758;6.360;2023-04-10T13:59:43;7.17;;;5.00;;
54613;SDS011;40514;52.758;6.360;2023-04-10T14:02:09;9.03;;;5.10;;
54613;SDS011;40514;52.758;6.360;2023-04-10T14:04:34;8.63;;;5.80;;
54613;SDS011;40514;52.758;6.360;2023-04-10T14:07:00;6.70;;;4.70;;
54613;SDS011;40514;52.758;6.360;2023-04-10T14:09:26;7.63;;;4.93;;
54613;SDS011;40514;52.758;6.360;2023-04-10T14:11:52;7.28;;;5.05;;
54613;SDS011;40514;52.758;6.360;2023-04-10T14:14:18;7.45;;;5.00;;
54613;SDS011;40514;52.758;6.360;2023-04-10T14:16:44;8.30;;;5.10;;
54613;SDS011;40514;52.758;6.360;2023-04-10T14:19:10;6.80;;;4.67;;
54613;SDS011;40514;52.758;6.360;2023-04-10T14:21:35;9.33;;;5.27;;
54613;SDS011;40514;52.758;6.360;2023-04-10T14:24:01;9.87;;;4.63;;
54613;SDS011;40514;52.758;6.360;2023-04-10T14:26:27;7.50;;;4.57;;
54613;SDS011;40514;52.758;6.360;2023-04-10T14:28:52;6.40;;;4.20;;
54613;SDS011;40514;52.758;6.360;2023-04-10T14:31:18;7.30;;;4.60;;
54613;SDS011;40514;52.758;6.360;2023-04-10T14:33:44;7.65;;;4.70;;
54613;SDS011;40514;52.758;6.360;2023-04-10T14:36:09;8.33;;;4.77;;
54613;SDS011;40514;52.758;6.360;2023-04-10T14:38:35;6.17;;;4.40;;
54613;SDS011;40514;52.758;6.360;2023-04-10T14:41:01;7.27;;;5.00;;
54613;SDS011;40514;52.758;6.360;2023-04-10T14:43:27;6.72;;;4.70;;
54613;SDS011;40514;52.758;6.360;2023-04-10T14:45:52;7.20;;;4.80;;
54613;SDS011;40514;52.758;6.360;2023-04-10T14:48:18;7.03;;;4.90;;
54613;SDS011;40514;52.758;6.360;2023-04-10T14:50:45;6.65;;;4.70;;
54613;SDS011;40514;52.758;6.360;2023-04-10T14:53:11;7.03;;;5.05;;
54613;SDS011;40514;52.758;6.360;2023-04-10T14:55:36;6.60;;;4.60;;
54613;SDS011;40514;52.758;6.360;2023-04-10T14:58:02;6.87;;;4.60;;
54613;SDS011;40514;52.758;6.360;2023-04-10T15:00:28;7.85;;;5.15;;
54613;SDS011;40514;52.758;6.360;2023-04-10T15:02:53;8.40;;;5.23;;
54613;SDS011;40514;52.758;6.360;2023-04-10T15:05:21;8.80;;;5.05;;
54613;SDS011;40514;52.758;6.360;2023-04-10T15:07:47;8.85;;;5.65;;
54613;SDS011;40514;52.758;6.360;2023-04-10T15:10:12;9.00;;;5.57;;
54613;SDS011;40514;52.758;6.360;2023-04-10T15:12:38;7.97;;;5.40;;
54613;SDS011;40514;52.758;6.360;2023-04-10T15:15:04;7.47;;;5.57;;
54613;SDS011;40514;52.758;6.360;2023-04-10T15:17:31;6.93;;;5.30;;
54613;SDS011;40514;52.758;6.360;2023-04-10T15:19:57;8.13;;;5.33;;
54613;SDS011;40514;52.758;6.360;2023-04-10T15:22:22;8.27;;;5.40;;
54613;SDS011;40514;52.758;6.360;2023-04-10T15:24:48;7.43;;;5.40;;